createdAt,value
2023-02-26T00:01:43.864Z,0.66
2023-02-26T00:04:11.184Z,1.04
2023-02-26T00:06:59.889Z,0.99
2023-02-26T00:09:27.214Z,1.12
2023-02-26T00:11:54.368Z,1.05
2023-02-26T00:14:21.441Z,1.19
2023-02-26T00:16:56.712Z,0.97
2023-02-26T00:19:25.044Z,1.22
2023-02-26T00:21:51.904Z,1.14
2023-02-26T00:24:23.322Z,1.22
2023-02-26T00:26:50.252Z,1.24
2023-02-26T00:29:17.169Z,1.27
2023-02-26T00:31:44.123Z,1.13
2023-02-26T00:34:12.626Z,1.32
2023-02-26T00:36:47.691Z,1.34
2023-02-26T00:39:32.628Z,1.34
2023-02-26T00:42:02.457Z,1.34
2023-02-26T00:44:32.768Z,1.28
2023-02-26T00:47:14.913Z,1.25
2023-02-26T00:50:11.698Z,1.12
2023-02-26T00:52:43.642Z,1.06
2023-02-26T00:55:10.231Z,0.80
2023-02-26T00:57:39.370Z,0.93
2023-02-26T01:00:09.238Z,0.88
2023-02-26T01:02:37.028Z,0.34
2023-02-26T01:05:04.372Z,0.57
2023-02-26T01:07:40.313Z,0.83
2023-02-26T01:10:07.629Z,0.64
2023-02-26T01:12:34.615Z,0.75
2023-02-26T01:15:01.451Z,0.44
2023-02-26T01:17:39.770Z,0.63
2023-02-26T01:20:16.405Z,0.58
2023-02-26T01:22:58.369Z,0.66
2023-02-26T01:25:29.055Z,0.63
2023-02-26T01:27:59.260Z,0.57
2023-02-26T01:30:26.464Z,0.59
2023-02-26T01:32:59.222Z,0.60
2023-02-26T01:35:46.067Z,0.48
2023-02-26T01:38:25.806Z,0.52
2023-02-26T01:41:19.787Z,0.52
2023-02-26T01:44:12.002Z,0.48
2023-02-26T01:47:00.150Z,0.44
2023-02-26T01:49:27.509Z,0.34
2023-02-26T01:52:01.109Z,0.40
2023-02-26T01:54:36.487Z,0.28
2023-02-26T01:57:05.139Z,0.35
2023-02-26T01:59:38.499Z,0.36
2023-02-26T02:02:08.467Z,0.21
2023-02-26T02:04:35.216Z,0.18
2023-02-26T02:07:02.256Z,0.26
2023-02-26T02:09:28.904Z,0.26
2023-02-26T02:12:08.094Z,0.22
2023-02-26T02:14:56.632Z,0.20
2023-02-26T02:17:54.089Z,0.09
2023-02-26T02:20:47.067Z,0.16
2023-02-26T02:23:22.543Z,0.14
2023-02-26T02:25:55.053Z,0.09
2023-02-26T02:28:46.535Z,0.10
2023-02-26T02:31:21.202Z,0.09
2023-02-26T02:34:09.713Z,0.05
2023-02-26T02:36:49.119Z,0.02
2023-02-26T02:39:18.251Z,0.02
2023-02-26T02:41:51.545Z,-0.14
2023-02-26T02:44:21.800Z,-0.11
2023-02-26T02:46:54.673Z,-0.15
2023-02-26T02:50:05.589Z,-0.07
2023-02-26T02:53:01.112Z,-0.08
2023-02-26T02:55:33.349Z,-0.24
2023-02-26T02:58:13.606Z,-0.26
2023-02-26T03:00:45.723Z,-0.11
2023-02-26T03:03:30.680Z,-0.12
2023-02-26T03:05:59.999Z,-0.32
2023-02-26T03:08:35.250Z,-0.56
2023-02-26T03:11:02.030Z,-0.17
2023-02-26T03:13:28.670Z,-0.19
2023-02-26T03:16:33.487Z,-0.22
2023-02-26T03:19:41.254Z,-0.54
2023-02-26T03:22:29.190Z,-0.27
2023-02-26T03:25:22.295Z,-0.30
2023-02-26T03:28:09.008Z,-0.32
2023-02-26T03:30:44.035Z,-0.33
2023-02-26T03:33:35.939Z,-0.36
2023-02-26T03:36:14.780Z,-0.35
2023-02-26T03:38:47.886Z,-0.48
2023-02-26T03:41:29.671Z,-0.48
2023-02-26T03:44:06.138Z,-0.41
2023-02-26T03:46:39.559Z,-0.43
2023-02-26T03:49:15.012Z,-0.58
2023-02-26T03:51:42.716Z,-0.47
2023-02-26T03:54:58.295Z,-0.80
2023-02-26T03:57:27.939Z,-0.77
2023-02-26T03:59:57.178Z,-0.50
2023-02-26T04:02:51.936Z,-0.60
2023-02-26T04:05:21.409Z,-0.52
2023-02-26T04:07:49.534Z,-0.56
2023-02-26T04:10:24.645Z,-0.62
2023-02-26T04:12:51.235Z,-0.61
2023-02-26T04:15:20.272Z,-0.75
2023-02-26T04:17:46.831Z,-0.57
2023-02-26T04:20:13.463Z,-0.63
2023-02-26T04:22:40.105Z,-0.60
2023-02-26T04:25:10.118Z,-0.93
2023-02-26T04:27:39.164Z,-0.74
2023-02-26T04:30:08.972Z,-0.68
2023-02-26T04:32:35.738Z,-0.71
2023-02-26T04:35:02.386Z,-0.82
2023-02-26T04:37:29.029Z,-0.97
2023-02-26T04:39:58.094Z,-0.97
2023-02-26T04:42:24.786Z,-0.87
2023-02-26T04:44:51.353Z,-1.00
2023-02-26T04:47:22.678Z,-1.00
2023-02-26T04:49:49.257Z,-1.02
2023-02-26T04:52:15.930Z,-1.10
2023-02-26T04:54:42.489Z,-0.92
2023-02-26T04:57:09.074Z,-1.06
2023-02-26T04:59:35.657Z,-0.98
2023-02-26T05:02:04.522Z,-1.21
2023-02-26T05:04:33.604Z,-1.04
2023-02-26T05:07:00.256Z,-0.99
2023-02-26T05:09:29.175Z,-1.03
2023-02-26T05:11:55.683Z,-1.11
2023-02-26T05:14:22.289Z,-1.04
2023-02-26T05:16:49.130Z,-1.04
2023-02-26T05:19:15.977Z,-1.03
2023-02-26T05:21:44.801Z,-1.11
2023-02-26T05:24:11.391Z,-1.14
2023-02-26T05:26:38.190Z,-1.06
2023-02-26T05:29:07.266Z,-1.13
2023-02-26T05:31:33.873Z,-1.16
2023-02-26T05:34:00.543Z,-1.15
2023-02-26T05:36:27.365Z,-1.17
2023-02-26T05:38:54.158Z,-1.34
2023-02-26T05:41:22.826Z,-1.26
2023-02-26T05:43:49.434Z,-1.17
2023-02-26T05:46:20.500Z,-1.18
2023-02-26T05:48:49.488Z,-1.31
2023-02-26T05:51:19.100Z,-1.32
2023-02-26T05:53:46.203Z,-1.34
2023-02-26T05:56:12.877Z,-1.23
2023-02-26T05:58:39.511Z,-1.23
2023-02-26T06:01:06.144Z,-1.22
2023-02-26T06:03:32.726Z,-1.23
2023-02-26T06:05:59.438Z,-1.25
2023-02-26T06:08:28.253Z,-1.45
2023-02-26T06:10:54.934Z,-1.27
2023-02-26T06:13:21.649Z,-1.29
2023-02-26T06:15:52.262Z,-1.64
2023-02-26T06:18:19.085Z,-1.26
2023-02-26T06:20:47.965Z,-1.21
2023-02-26T06:23:18.231Z,-1.23
2023-02-26T06:25:45.552Z,-1.35
2023-02-26T06:28:12.308Z,-1.22
2023-02-26T06:30:49.328Z,-1.22
2023-02-26T06:33:19.222Z,-1.23
2023-02-26T06:35:47.048Z,-1.33
2023-02-26T06:38:15.869Z,-1.22
2023-02-26T06:40:43.565Z,-1.23
2023-02-26T06:43:13.100Z,-1.24
2023-02-26T06:45:40.807Z,-1.23
2023-02-26T06:48:08.631Z,-1.31
2023-02-26T06:50:37.806Z,-1.27
2023-02-26T06:53:04.611Z,-1.28
2023-02-26T06:55:31.724Z,-1.79
2023-02-26T06:57:58.386Z,-1.30
2023-02-26T07:00:26.027Z,-1.22
2023-02-26T07:02:53.183Z,-1.31
2023-02-26T07:05:19.854Z,-1.19
2023-02-26T07:07:49.010Z,-1.14
2023-02-26T07:10:15.651Z,-1.31
2023-02-26T07:12:42.685Z,-1.18
2023-02-26T07:15:09.691Z,-1.14
2023-02-26T07:17:36.884Z,-1.30
2023-02-26T07:20:10.362Z,-1.10
2023-02-26T07:22:38.119Z,-1.16
2023-02-26T07:25:05.945Z,-1.03
2023-02-26T07:27:33.451Z,-0.97
2023-02-26T07:30:00.547Z,-0.98
2023-02-26T07:32:27.184Z,-0.92
2023-02-26T07:34:54.422Z,-0.93
2023-02-26T07:37:25.940Z,-0.85
2023-02-26T07:39:53.413Z,-0.79
2023-02-26T07:42:21.170Z,-0.83
2023-02-26T07:44:49.061Z,-0.68
2023-02-26T07:47:15.697Z,-0.97
2023-02-26T07:49:42.321Z,-0.82
2023-02-26T07:52:14.790Z,-0.56
2023-02-26T07:54:58.572Z,-0.53
2023-02-26T07:57:25.962Z,-0.50
2023-02-26T07:59:53.398Z,-0.45
2023-02-26T08:02:20.832Z,-0.38
2023-02-26T08:04:48.601Z,-0.33
2023-02-26T08:07:18.164Z,-0.32
2023-02-26T08:09:45.550Z,-0.20
2023-02-26T08:12:14.353Z,-0.29
2023-02-26T08:14:41.764Z,-0.13
2023-02-26T08:17:09.581Z,-0.05
2023-02-26T08:19:36.180Z,0.03
2023-02-26T08:22:04.027Z,0.09
2023-02-26T08:24:31.934Z,0.17
2023-02-26T08:26:59.505Z,0.26
2023-02-26T08:34:52.003Z,0.41
2023-02-26T08:37:28.429Z,0.46
2023-02-26T08:39:57.939Z,0.53
2023-02-26T08:42:27.838Z,0.59
2023-02-26T08:44:58.316Z,0.66
2023-02-26T08:47:42.350Z,0.61
2023-02-26T08:50:16.596Z,0.78
2023-02-26T08:53:07.286Z,0.87
2023-02-26T08:55:38.552Z,0.96
2023-02-26T08:58:06.082Z,0.98
2023-02-26T09:00:32.672Z,1.04
2023-02-26T09:03:03.393Z,1.05
2023-02-26T09:05:30.277Z,1.24
2023-02-26T09:07:56.954Z,1.30
2023-02-26T09:10:23.710Z,1.26
2023-02-26T09:12:50.370Z,1.09
2023-02-26T09:15:17.103Z,1.48
2023-02-26T09:17:44.289Z,2.29
2023-02-26T09:20:12.246Z,3.12
2023-02-26T09:22:38.868Z,3.32
2023-02-26T09:25:06.447Z,3.77
2023-02-26T09:27:37.087Z,3.81
2023-02-26T09:30:05.778Z,3.88
2023-02-26T09:32:32.521Z,3.67
2023-02-26T09:34:59.192Z,3.80
2023-02-26T09:37:25.826Z,4.00
2023-02-26T09:39:55.080Z,4.10
2023-02-26T09:42:53.506Z,3.74
2023-02-26T09:45:34.947Z,3.58
2023-02-26T09:48:05.673Z,3.65
2023-02-26T09:50:38.904Z,4.01
2023-02-26T09:53:15.612Z,3.88
2023-02-26T09:55:45.147Z,3.84
2023-02-26T09:58:35.691Z,3.80
2023-02-26T10:01:05.205Z,3.66
2023-02-26T10:03:47.239Z,3.82
2023-02-26T10:06:39.768Z,4.11
2023-02-26T10:09:11.671Z,4.15
2023-02-26T10:11:46.054Z,4.16
2023-02-26T10:14:25.171Z,3.92
2023-02-26T10:16:57.124Z,3.66
2023-02-26T10:19:29.108Z,3.70
2023-02-26T10:22:24.186Z,3.66
2023-02-26T10:24:59.919Z,3.76
2023-02-26T10:28:18.556Z,3.93
2023-02-26T10:30:54.954Z,3.99
2023-02-26T10:33:46.001Z,3.99
2023-02-26T10:36:40.903Z,4.05
2023-02-26T10:39:18.347Z,3.83
2023-02-26T10:41:46.016Z,3.99
2023-02-26T10:44:32.444Z,3.93
2023-02-26T10:47:21.821Z,3.97
2023-02-26T10:49:56.068Z,3.94
2023-02-26T10:52:31.588Z,3.85
2023-02-26T10:55:26.367Z,4.14
2023-02-26T10:58:14.514Z,3.50
2023-02-26T11:00:44.683Z,4.19
2023-02-26T11:03:30.742Z,4.09
2023-02-26T11:06:08.165Z,4.32
2023-02-26T11:08:46.169Z,4.21
2023-02-26T11:11:38.684Z,4.38
2023-02-26T11:14:08.560Z,4.32
2023-02-26T11:16:41.688Z,4.37
2023-02-26T11:19:09.155Z,4.55
2023-02-26T11:21:43.231Z,4.58
2023-02-26T11:24:35.942Z,4.72
2023-02-26T11:27:06.315Z,4.61
2023-02-26T11:29:38.679Z,4.82
2023-02-26T11:32:06.555Z,4.68
2023-02-26T11:34:33.414Z,4.93
2023-02-26T11:37:01.498Z,4.85
2023-02-26T11:39:33.888Z,4.78
2023-02-26T11:42:04.539Z,4.78
2023-02-26T11:44:39.721Z,4.87
2023-02-26T11:47:13.248Z,4.87
2023-02-26T11:49:48.153Z,4.88
2023-02-26T11:52:48.610Z,4.87
2023-02-26T11:55:50.566Z,4.85
2023-02-26T11:58:23.887Z,4.84
2023-02-26T12:00:54.320Z,4.64
2023-02-26T12:03:23.618Z,5.11
2023-02-26T12:05:56.199Z,4.90
2023-02-26T12:08:25.645Z,5.10
2023-02-26T12:11:14.978Z,5.21
2023-02-26T12:14:00.664Z,5.34
2023-02-26T12:16:44.548Z,5.39
2023-02-26T12:19:43.376Z,5.47
2023-02-26T12:22:32.423Z,5.36
2023-02-26T12:25:22.297Z,5.46
2023-02-26T12:28:30.986Z,5.53
2023-02-26T12:31:15.990Z,5.50
2023-02-26T12:34:19.980Z,5.60
2023-02-26T12:36:58.626Z,5.63
2023-02-26T12:39:42.766Z,5.59
2023-02-26T12:42:44.302Z,5.92
2023-02-26T12:45:34.994Z,5.96
2023-02-26T12:48:25.573Z,5.81
2023-02-26T12:51:13.769Z,5.91
2023-02-26T12:53:52.506Z,5.81
2023-02-26T12:56:25.359Z,5.72
2023-02-26T12:59:16.545Z,5.98
2023-02-26T13:02:12.945Z,5.99
2023-02-26T13:04:52.155Z,6.08
2023-02-26T13:07:31.137Z,6.10
2023-02-26T13:10:26.211Z,6.03
2023-02-26T13:13:35.437Z,6.08
2023-02-26T13:16:14.835Z,6.03
2023-02-26T13:19:01.293Z,6.11
2023-02-26T13:21:37.335Z,6.18
2023-02-26T13:24:13.174Z,6.09
2023-02-26T13:26:42.649Z,6.08
2023-02-26T13:29:37.310Z,6.04
2023-02-26T13:33:17.375Z,5.98
2023-02-26T13:35:55.023Z,6.03
2023-02-26T13:38:47.922Z,6.02
2023-02-26T13:41:30.084Z,6.03
2023-02-26T13:44:27.709Z,6.13
2023-02-26T13:47:03.723Z,6.11
2023-02-26T13:49:51.901Z,6.11
2023-02-26T13:52:30.429Z,6.01
2023-02-26T13:54:59.672Z,6.08
2023-02-26T13:57:51.522Z,6.05
2023-02-26T14:00:57.587Z,6.06
2023-02-26T14:03:33.775Z,6.06
2023-02-26T14:06:30.074Z,6.04
2023-02-26T14:08:58.545Z,6.31
2023-02-26T14:12:15.855Z,6.13
2023-02-26T14:14:45.313Z,6.09
2023-02-26T14:17:12.150Z,6.08
2023-02-26T14:19:45.176Z,5.93
2023-02-26T14:22:26.006Z,6.08
2023-02-26T14:24:52.488Z,6.11
2023-02-26T14:27:19.151Z,6.11
2023-02-26T14:30:10.888Z,6.15
2023-02-26T14:32:48.698Z,6.11
2023-02-26T14:35:20.922Z,5.93
2023-02-26T14:38:08.242Z,5.98
2023-02-26T14:40:44.395Z,6.06
2023-02-26T14:43:22.367Z,6.04
2023-02-26T14:45:56.476Z,6.02
2023-02-26T14:48:32.801Z,6.00
2023-02-26T14:51:02.424Z,6.05
2023-02-26T14:53:58.673Z,6.03
2023-02-26T14:57:02.507Z,6.01
2023-02-26T14:59:31.918Z,5.98
2023-02-26T15:02:09.029Z,5.96
2023-02-26T15:04:50.922Z,5.95
2023-02-26T15:07:52.091Z,5.97
2023-02-26T15:10:48.245Z,5.98
2023-02-26T15:13:20.887Z,6.18
2023-02-26T15:15:50.586Z,6.32
2023-02-26T15:18:43.603Z,6.09
2023-02-26T15:21:10.189Z,6.23
2023-02-26T15:23:50.595Z,6.07
2023-02-26T15:26:23.120Z,6.03
2023-02-26T15:28:51.893Z,6.07
2023-02-26T15:31:30.729Z,6.01
2023-02-26T15:33:58.646Z,5.91
2023-02-26T15:36:27.386Z,5.93
2023-02-26T15:39:03.991Z,5.94
2023-02-26T15:41:32.582Z,5.94
2023-02-26T15:44:16.153Z,5.83
2023-02-26T15:46:48.412Z,5.92
2023-02-26T15:49:55.412Z,5.84
2023-02-26T15:52:27.174Z,5.79
2023-02-26T15:55:06.084Z,5.84
2023-02-26T15:57:33.118Z,5.70
2023-02-26T16:00:25.801Z,5.78
2023-02-26T16:03:01.674Z,5.71
2023-02-26T16:05:32.217Z,5.71
2023-02-26T16:07:59.462Z,5.63
2023-02-26T16:10:38.972Z,5.68
2023-02-26T16:13:10.523Z,5.39
2023-02-26T16:15:43.093Z,5.61
2023-02-26T16:18:17.428Z,5.56
2023-02-26T16:20:50.214Z,5.44
2023-02-26T16:23:22.043Z,5.29
2023-02-26T16:25:59.960Z,5.43
2023-02-26T16:28:33.048Z,5.32
2023-02-26T16:31:04.765Z,5.23
2023-02-26T16:33:35.305Z,5.12
2023-02-26T16:36:14.417Z,5.26
2023-02-26T16:38:58.073Z,5.23
2023-02-26T16:41:27.853Z,4.88
2023-02-26T16:43:58.141Z,5.15
2023-02-26T16:46:43.015Z,5.07
2023-02-26T16:49:25.070Z,5.01
2023-02-26T16:51:54.596Z,5.26
2023-02-26T16:54:37.150Z,5.34
2023-02-26T16:57:25.053Z,5.08
2023-02-26T17:03:40.136Z,4.85
2023-02-26T17:06:12.085Z,4.74
2023-02-26T17:08:53.425Z,4.69
2023-02-26T17:14:33.057Z,4.63
2023-02-26T17:17:01.954Z,4.41
2023-02-26T17:19:28.516Z,4.38
2023-02-26T17:21:58.901Z,4.21
2023-02-26T17:24:45.934Z,4.00
2023-02-26T17:27:24.166Z,3.93
2023-02-26T17:29:53.950Z,3.97
2023-02-26T17:32:24.212Z,3.57
2023-02-26T17:34:51.704Z,3.75
2023-02-26T17:37:19.119Z,3.65
2023-02-26T17:39:48.790Z,3.64
2023-02-26T17:42:19.430Z,3.69
2023-02-26T17:44:48.802Z,3.40
2023-02-26T17:47:17.443Z,3.49
2023-02-26T17:49:44.536Z,3.50
2023-02-26T17:52:11.215Z,3.37
2023-02-26T17:54:38.058Z,3.34
2023-02-26T17:57:06.213Z,3.46
2023-02-26T17:59:33.790Z,3.33
2023-02-26T18:02:14.261Z,3.32
2023-02-26T18:04:43.128Z,3.18
2023-02-26T18:07:16.606Z,3.24
2023-02-26T18:09:44.691Z,3.27
2023-02-26T18:12:21.605Z,3.19
2023-02-26T18:14:48.632Z,3.20
2023-02-26T18:17:23.384Z,3.20
2023-02-26T18:19:50.647Z,3.29
2023-02-26T18:22:19.896Z,3.54
2023-02-26T18:24:46.811Z,3.41
2023-02-26T18:27:20.011Z,3.34
2023-02-26T18:29:47.184Z,2.87
2023-02-26T18:32:16.312Z,2.93
2023-02-26T18:34:45.850Z,3.18
2023-02-26T18:37:14.854Z,3.17
2023-02-26T18:39:41.916Z,3.09
2023-02-26T18:42:21.717Z,3.08
2023-02-26T18:44:49.730Z,2.67
2023-02-26T18:47:17.734Z,2.83
2023-02-26T18:52:32.232Z,2.82
2023-02-26T18:55:03.050Z,2.83
2023-02-26T18:57:30.567Z,2.74
2023-02-26T18:59:57.265Z,2.58
2023-02-26T19:02:24.082Z,2.67
2023-02-26T19:04:53.092Z,2.54
2023-02-26T19:07:20.009Z,2.51
2023-02-26T19:09:49.402Z,2.58
2023-02-26T19:12:20.075Z,2.62
2023-02-26T19:14:48.037Z,2.41
2023-02-26T19:17:15.189Z,2.50
2023-02-26T19:19:42.503Z,2.61
2023-02-26T19:22:10.751Z,2.45
2023-02-26T19:24:37.746Z,2.13
2023-02-26T19:27:07.974Z,2.49
2023-02-26T19:29:39.612Z,2.41
2023-02-26T19:32:10.265Z,2.31
2023-02-26T19:34:39.485Z,2.35
2023-02-26T19:37:06.471Z,2.14
2023-02-26T19:39:34.582Z,2.29
2023-02-26T19:42:01.187Z,2.26
2023-02-26T19:44:28.081Z,2.19
2023-02-26T19:46:55.547Z,2.12
2023-02-26T19:49:23.196Z,2.27
2023-02-26T19:51:49.958Z,2.15
2023-02-26T19:54:17.068Z,2.00
2023-02-26T19:56:44.802Z,1.68
2023-02-26T19:59:12.533Z,1.98
2023-02-26T20:01:41.526Z,2.02
2023-02-26T20:04:09.638Z,1.55
2023-02-26T20:06:36.885Z,1.81
2023-02-26T20:09:05.180Z,1.79
2023-02-26T20:11:31.835Z,1.80
2023-02-26T20:14:01.994Z,1.79
2023-02-26T20:16:28.619Z,1.55
2023-02-26T20:18:55.395Z,1.70
2023-02-26T20:21:23.439Z,1.67
2023-02-26T20:23:50.129Z,0.84
2023-02-26T20:26:16.721Z,1.68
2023-02-26T20:28:46.030Z,0.71
2023-02-26T20:31:12.809Z,1.59
2023-02-26T20:33:39.737Z,1.48
2023-02-26T20:36:10.113Z,1.50
2023-02-26T20:38:37.132Z,1.44
2023-02-26T20:41:04.698Z,1.49
2023-02-26T20:43:31.422Z,1.41
2023-02-26T20:46:00.270Z,0.96
2023-02-26T20:48:27.144Z,1.41
2023-02-26T20:50:59.468Z,1.39
2023-02-26T20:53:27.102Z,1.37
2023-02-26T20:55:57.446Z,1.18
2023-02-26T20:58:25.066Z,0.72
2023-02-26T21:00:55.029Z,1.15
2023-02-26T21:03:21.722Z,1.19
2023-02-26T21:05:51.429Z,1.22
2023-02-26T21:08:20.523Z,1.21
2023-02-26T21:10:49.990Z,1.21
2023-02-26T21:13:16.623Z,1.07
2023-02-26T21:15:43.408Z,1.12
2023-02-26T21:18:10.367Z,1.16
2023-02-26T21:20:36.952Z,1.07
2023-02-26T21:23:03.533Z,0.91
2023-02-26T21:25:31.462Z,1.02
2023-02-26T21:27:58.980Z,1.05
2023-02-26T21:30:25.709Z,1.01
2023-02-26T21:32:52.337Z,0.85
2023-02-26T21:35:19.359Z,0.88
2023-02-26T21:37:46.657Z,0.86
2023-02-26T21:40:16.686Z,0.94
2023-02-26T21:42:43.860Z,0.95
2023-02-26T21:45:11.274Z,1.04
2023-02-26T21:47:38.025Z,0.91
2023-02-26T21:50:06.102Z,0.97
2023-02-26T21:52:35.229Z,0.83
2023-02-26T21:55:04.246Z,0.84
2023-02-26T21:57:31.013Z,0.77
2023-02-26T21:59:57.956Z,-0.13
2023-02-26T22:02:24.666Z,1.03
2023-02-26T22:04:51.397Z,1.28
2023-02-26T22:07:18.074Z,0.93
2023-02-26T22:09:48.963Z,0.86
2023-02-26T22:12:17.249Z,0.50
2023-02-26T22:14:44.147Z,0.82
2023-02-26T22:17:12.534Z,0.71
2023-02-26T22:19:39.104Z,0.60
2023-02-26T22:22:09.325Z,0.60
2023-02-26T22:24:36.665Z,0.49
2023-02-26T22:27:03.402Z,0.48
2023-02-26T22:29:32.454Z,0.56
2023-02-26T22:31:59.113Z,0.47
2023-02-26T22:34:28.614Z,0.44
2023-02-26T22:36:55.446Z,0.47
2023-02-26T22:39:22.060Z,0.45
2023-02-26T22:41:50.917Z,0.22
2023-02-26T22:44:17.901Z,0.34
2023-02-26T22:46:47.212Z,0.30
2023-02-26T22:49:16.200Z,0.12
2023-02-26T22:51:42.803Z,-0.79
2023-02-26T22:54:11.450Z,0.13
2023-02-26T22:56:38.015Z,0.01
2023-02-26T22:59:04.696Z,0.14
2023-02-26T23:01:34.087Z,0.02
2023-02-26T23:04:03.237Z,0.12
2023-02-26T23:06:29.942Z,0.06
2023-02-26T23:09:01.327Z,-0.31
2023-02-26T23:11:28.361Z,-0.02
2023-02-26T23:13:57.494Z,0.07
2023-02-26T23:16:24.141Z,0.08
2023-02-26T23:18:50.851Z,-0.06
2023-02-26T23:21:17.542Z,-0.05
2023-02-26T23:23:46.891Z,-0.04
2023-02-26T23:26:18.453Z,-0.03
2023-02-26T23:28:45.080Z,0.02
2023-02-26T23:31:11.790Z,-0.07
2023-02-26T23:33:38.418Z,-0.07
2023-02-26T23:36:05.992Z,-0.01
2023-02-26T23:38:32.589Z,0.00
2023-02-26T23:40:59.307Z,-0.19
2023-02-26T23:43:25.985Z,-0.48
2023-02-26T23:45:52.587Z,-0.25
2023-02-26T23:48:19.294Z,-0.19
2023-02-26T23:50:52.799Z,-0.27
2023-02-26T23:53:22.214Z,-0.32
2023-02-26T23:55:51.146Z,-0.49
2023-02-26T23:58:17.976Z,-0.42
